createdAt,value
2022-12-04T00:01:31.707Z,1005.3
2022-12-04T00:11:37.697Z,1005.1
2022-12-04T00:21:43.775Z,1005.1
2022-12-04T00:31:49.916Z,1005
2022-12-04T00:41:55.869Z,1004.9
2022-12-04T00:52:01.897Z,1004.8
2022-12-04T01:02:07.950Z,1004.8
2022-12-04T01:12:20.411Z,1004.9
2022-12-04T01:22:20.043Z,1004.9
2022-12-04T01:32:26.088Z,1004.9
2022-12-04T01:42:32.224Z,1004.9
2022-12-04T01:52:38.156Z,1004.8
2022-12-04T02:02:44.268Z,1004.7
2022-12-04T02:12:51.358Z,1004.7
2022-12-04T02:22:57.445Z,1004.7
2022-12-04T02:33:03.451Z,1004.7
2022-12-04T02:43:09.512Z,1004.7
2022-12-04T02:53:15.539Z,1004.6
2022-12-04T03:03:21.630Z,1004.7
2022-12-04T03:13:27.654Z,1004.8
2022-12-04T03:23:33.710Z,1004.8
2022-12-04T03:33:39.702Z,1004.8
2022-12-04T03:43:45.786Z,1004.7
2022-12-04T03:53:51.810Z,1004.7
2022-12-04T04:03:57.882Z,1004.6
2022-12-04T04:14:03.888Z,1004.8
2022-12-04T04:24:09.960Z,1004.8
2022-12-04T04:34:15.971Z,1004.7
2022-12-04T04:44:22.033Z,1004.7
2022-12-04T04:54:28.063Z,1004.7
2022-12-04T05:04:34.196Z,1004.6
2022-12-04T05:14:40.155Z,1004.7
2022-12-04T05:24:46.233Z,1004.7
2022-12-04T05:34:52.255Z,1004.6
2022-12-04T05:44:58.316Z,1004.6
2022-12-04T05:55:04.335Z,1004.6
2022-12-04T06:05:10.393Z,1004.6
2022-12-04T06:15:16.411Z,1004.6
2022-12-04T06:25:22.497Z,1004.7
2022-12-04T06:35:28.483Z,1004.7
2022-12-04T06:45:34.628Z,1004.7
2022-12-04T06:55:40.588Z,1004.8
2022-12-04T07:05:46.660Z,1004.9
2022-12-04T07:15:52.697Z,1004.8
2022-12-04T07:25:58.748Z,1004.9
2022-12-04T07:36:04.767Z,1004.9
2022-12-04T07:46:10.900Z,1005
2022-12-04T07:56:16.850Z,1005.1
2022-12-04T08:06:22.930Z,1005.1
2022-12-04T08:16:29.024Z,1005.3
2022-12-04T08:26:35.027Z,1005.3
2022-12-04T08:36:41.027Z,1005.2
2022-12-04T08:46:47.202Z,1005.3
2022-12-04T08:56:53.110Z,1005.3
2022-12-04T09:06:59.174Z,1005.1
2022-12-04T09:17:05.221Z,1005
2022-12-04T09:27:14.687Z,1005
2022-12-04T09:37:17.290Z,1005.3
2022-12-04T09:47:23.370Z,1005.5
2022-12-04T09:57:29.392Z,1005.5
2022-12-04T10:07:35.512Z,1005.3
2022-12-04T10:17:41.466Z,1005.3
2022-12-04T10:27:47.533Z,1005.1
2022-12-04T10:37:53.558Z,1005
2022-12-04T10:47:59.626Z,1004.9
2022-12-04T10:58:05.659Z,1004.8
2022-12-04T11:08:15.629Z,1004.6
2022-12-04T11:18:17.730Z,1004.6
2022-12-04T11:28:41.205Z,1004.5
2022-12-04T11:38:29.828Z,1004.5
2022-12-04T11:48:35.897Z,1004.4
2022-12-04T11:58:41.918Z,1004.4
2022-12-04T12:08:47.995Z,1004.3
2022-12-04T12:18:54.003Z,1004.3
2022-12-04T12:29:00.085Z,1004.3
2022-12-04T12:39:06.104Z,1004.2
2022-12-04T12:49:12.159Z,1004.3
2022-12-04T12:59:18.176Z,1004.2
2022-12-04T13:09:24.244Z,1004.1
2022-12-04T13:19:30.276Z,1004
2022-12-04T13:29:36.348Z,1003.9
2022-12-04T13:39:42.359Z,1003.8
2022-12-04T13:49:48.419Z,1003.8
2022-12-04T13:59:54.447Z,1003.8
2022-12-04T14:10:00.515Z,1003.9
2022-12-04T14:20:08.228Z,1003.9
2022-12-04T14:30:12.626Z,1003.8
2022-12-04T14:40:18.620Z,1003.6
2022-12-04T14:50:24.700Z,1003.6
2022-12-04T15:00:30.704Z,1003.8
2022-12-04T15:10:36.821Z,1003.7
2022-12-04T15:20:42.794Z,1003.7
2022-12-04T15:30:48.936Z,1003.8
2022-12-04T15:40:54.901Z,1003.9
2022-12-04T15:51:00.948Z,1003.9
2022-12-04T16:01:07.049Z,1003.9
2022-12-04T16:11:13.059Z,1003.9
2022-12-04T16:21:19.080Z,1003.7
2022-12-04T16:31:25.205Z,1003.8
2022-12-04T16:41:31.130Z,1003.9
2022-12-04T16:51:37.223Z,1004
2022-12-04T17:01:43.288Z,1004.1
2022-12-04T17:11:49.293Z,1004.2
2022-12-04T17:21:55.319Z,1004.2
2022-12-04T17:32:01.398Z,1004.2
2022-12-04T17:42:07.421Z,1004.1
2022-12-04T17:52:13.509Z,1004.1
2022-12-04T18:02:19.508Z,1004.1
2022-12-04T18:12:25.587Z,1004
2022-12-04T18:22:31.583Z,1004.1
2022-12-04T18:32:37.660Z,1004.1
2022-12-04T18:42:43.689Z,1004.2
2022-12-04T18:52:56.239Z,1004
2022-12-04T19:02:55.782Z,1003.9
2022-12-04T19:13:01.864Z,1004
2022-12-04T19:23:07.867Z,1004
2022-12-04T19:33:13.941Z,1004.1
2022-12-04T19:43:19.964Z,1004.2
2022-12-04T19:53:26.030Z,1004.3
2022-12-04T20:03:32.060Z,1004.3
2022-12-04T20:13:38.118Z,1004.3
2022-12-04T20:23:44.148Z,1004.3
2022-12-04T20:33:50.296Z,1004.2
2022-12-04T20:43:56.241Z,1004.1
2022-12-04T20:54:02.288Z,1004
2022-12-04T21:04:08.312Z,1004
2022-12-04T21:14:14.373Z,1003.8
2022-12-04T21:24:20.389Z,1003.8
2022-12-04T21:34:26.499Z,1003.9
2022-12-04T21:44:32.486Z,1004.1
2022-12-04T21:54:38.579Z,1004.2
2022-12-04T22:04:44.577Z,1004.3
2022-12-04T22:14:50.640Z,1004.4
2022-12-04T22:24:56.684Z,1004.4
2022-12-04T22:35:02.749Z,1004.4
2022-12-04T22:45:08.742Z,1004.4
2022-12-04T22:55:14.832Z,1004.5
2022-12-04T23:05:20.962Z,1004.6
2022-12-04T23:15:26.910Z,1004.5
2022-12-04T23:25:32.948Z,1004.5
2022-12-04T23:35:39.017Z,1004.4
2022-12-04T23:45:45.009Z,1004.4
2022-12-04T23:55:51.094Z,1004.4
